createdAt,value
2019-05-19T00:00:54.273Z,99366.93
2019-05-19T00:03:22.866Z,99371.48
2019-05-19T00:05:51.494Z,99372.49
2019-05-19T00:08:20.105Z,99376.87
2019-05-19T00:10:48.870Z,99376.48
2019-05-19T00:13:17.704Z,99366.45
2019-05-19T00:15:46.441Z,99360.61
2019-05-19T00:18:15.069Z,99365.57
2019-05-19T00:20:44.558Z,99377.87
2019-05-19T00:23:13.160Z,99376.70
2019-05-19T00:25:41.798Z,99376.70
2019-05-19T00:28:10.503Z,99374.05
2019-05-19T00:30:39.116Z,99360.37
2019-05-19T00:33:07.730Z,99348.42
2019-05-19T00:35:36.421Z,99334.32
2019-05-19T00:38:05.113Z,99335.14
2019-05-19T00:40:33.734Z,99332.67
2019-05-19T00:43:02.364Z,99343.19
2019-05-19T00:45:31.078Z,99341.31
2019-05-19T00:47:59.847Z,99337.02
2019-05-19T00:50:28.609Z,99327.73
2019-05-19T00:52:57.307Z,99324.89
2019-05-19T00:55:26.010Z,99323.43
2019-05-19T00:57:54.673Z,99319.20
2019-05-19T01:00:23.423Z,99319.20
2019-05-19T01:02:51.995Z,99318.90
2019-05-19T01:05:20.942Z,99316.66
2019-05-19T01:07:49.794Z,99307.63
2019-05-19T01:10:18.767Z,99311.72
2019-05-19T01:12:47.441Z,99304.50
2019-05-19T01:15:16.291Z,99303.72
2019-05-19T01:17:45.021Z,99305.06
2019-05-19T01:20:13.880Z,99304.08
2019-05-19T01:22:42.532Z,99310.55
2019-05-19T01:25:11.479Z,99312.03
2019-05-19T01:27:40.190Z,99313.27
2019-05-19T01:30:10.398Z,99311.65
2019-05-19T01:32:39.037Z,99313.88
2019-05-19T01:35:07.907Z,99306.08
2019-05-19T01:37:36.551Z,99303.70
2019-05-19T01:40:05.533Z,99299.41
2019-05-19T01:42:34.153Z,99301.31
2019-05-19T01:45:02.840Z,99307.53
2019-05-19T01:47:31.539Z,99298.05
2019-05-19T01:50:17.132Z,99296.70
2019-05-19T01:52:30.503Z,99299.02
2019-05-19T01:54:59.140Z,99296.86
2019-05-19T01:57:27.774Z,99297.08
2019-05-19T01:59:56.386Z,99292.53
2019-05-19T02:02:25.073Z,99300.05
2019-05-19T02:04:53.693Z,99286.93
2019-05-19T02:07:22.330Z,99282.48
2019-05-19T02:09:50.934Z,99285.06
2019-05-19T02:12:19.615Z,99285.72
2019-05-19T02:14:48.234Z,99283.07
2019-05-19T02:17:16.868Z,99288.73
2019-05-19T02:19:45.527Z,99291.59
2019-05-19T02:22:14.225Z,99298.98
2019-05-19T02:24:42.903Z,99297.27
2019-05-19T02:27:11.548Z,99294.06
2019-05-19T02:29:40.158Z,99303.41
2019-05-19T02:32:08.778Z,99301.13
2019-05-19T02:34:37.400Z,99302.80
2019-05-19T02:37:06.075Z,99303.65
2019-05-19T02:39:34.693Z,99307.02
2019-05-19T02:42:05.009Z,99312.77
2019-05-19T02:44:34.457Z,99307.69
2019-05-19T02:47:03.974Z,99304.22
2019-05-19T02:49:34.239Z,99304.42
2019-05-19T02:52:04.106Z,99307.19
2019-05-19T02:54:34.162Z,99303.23
2019-05-19T02:57:03.571Z,99301.49
2019-05-19T02:59:32.258Z,99308.72
2019-05-19T03:02:02.760Z,99300.87
2019-05-19T03:04:31.577Z,99303.15
2019-05-19T03:07:00.299Z,99301.88
2019-05-19T03:09:28.925Z,99309.91
2019-05-19T03:11:57.603Z,99319.27
2019-05-19T03:14:26.381Z,99317.92
2019-05-19T03:16:54.994Z,99319.28
2019-05-19T03:19:23.722Z,99321.69
2019-05-19T03:21:52.323Z,99324.05
2019-05-19T03:24:21.015Z,99327.53
2019-05-19T03:26:49.952Z,99324.59
2019-05-19T03:29:22.171Z,99322.53
2019-05-19T03:32:00.246Z,99321.53
2019-05-19T03:34:28.869Z,99329.91
2019-05-19T03:36:57.464Z,99324.45
2019-05-19T03:39:26.116Z,99317.91
2019-05-19T03:41:54.723Z,99316.23
2019-05-19T03:44:23.360Z,99315.33
2019-05-19T03:46:51.970Z,99319.49
2019-05-19T03:49:20.740Z,99326.69
2019-05-19T03:51:49.347Z,99323.90
2019-05-19T03:54:17.975Z,99324.50
2019-05-19T03:56:46.584Z,99327.08
2019-05-19T03:59:15.203Z,99323.70
2019-05-19T04:01:43.799Z,99328.16
2019-05-19T04:04:12.411Z,99322.55
2019-05-19T04:06:41.018Z,99322.36
2019-05-19T04:09:09.646Z,99322.33
2019-05-19T04:11:38.275Z,99323.67
2019-05-19T04:14:06.914Z,99316.88
2019-05-19T04:16:35.529Z,99309.19
2019-05-19T04:19:04.206Z,99312.50
2019-05-19T04:21:47.531Z,99318.13
2019-05-19T04:24:03.195Z,99322.48
2019-05-19T04:26:31.795Z,99335.14
2019-05-19T04:29:00.461Z,99333.03
2019-05-19T04:31:29.169Z,99336.12
2019-05-19T04:33:57.809Z,99338.30
2019-05-19T04:36:26.420Z,99340.47
2019-05-19T04:38:55.095Z,99338.28
2019-05-19T04:41:23.669Z,99336.72
2019-05-19T04:43:52.275Z,99339.13
2019-05-19T04:46:20.918Z,99338.36
2019-05-19T04:48:49.532Z,99346.16
2019-05-19T04:51:18.164Z,99350.86
2019-05-19T04:53:46.769Z,99349.52
2019-05-19T04:56:19.378Z,99358.73
2019-05-19T04:58:45.811Z,99359.41
2019-05-19T05:01:14.516Z,99370.43
2019-05-19T05:03:43.132Z,99369.75
2019-05-19T05:06:11.806Z,99369.18
2019-05-19T05:08:40.440Z,99369.50
2019-05-19T05:11:09.133Z,99372.87
2019-05-19T05:13:37.754Z,99370.06
2019-05-19T05:16:06.398Z,99372.09
2019-05-19T05:18:35.043Z,99368.11
2019-05-19T05:21:03.726Z,99370.70
2019-05-19T05:23:32.345Z,99367.05
2019-05-19T05:26:01.036Z,99361.96
2019-05-19T05:28:29.643Z,99361.96
2019-05-19T05:30:58.292Z,99358.32
2019-05-19T05:33:26.922Z,99365.00
2019-05-19T05:35:55.628Z,99356.86
2019-05-19T05:38:24.268Z,99358.98
2019-05-19T05:40:52.892Z,99351.96
2019-05-19T05:43:21.496Z,99357.12
2019-05-19T05:45:50.123Z,99344.52
2019-05-19T05:48:18.735Z,99351.16
2019-05-19T05:50:47.355Z,99351.68
2019-05-19T05:53:15.975Z,99346.96
2019-05-19T05:55:44.578Z,99337.27
2019-05-19T05:58:13.543Z,99339.52
2019-05-19T06:00:42.194Z,99353.84
2019-05-19T06:03:10.979Z,99354.26
2019-05-19T06:05:39.790Z,99354.26
2019-05-19T06:08:08.496Z,99349.20
2019-05-19T06:10:37.227Z,99347.64
2019-05-19T06:13:05.889Z,99340.34
2019-05-19T06:15:34.549Z,99348.47
2019-05-19T06:18:03.276Z,99348.47
2019-05-19T06:20:32.035Z,99351.61
2019-05-19T06:23:00.660Z,99344.13
2019-05-19T06:25:29.368Z,99344.13
2019-05-19T06:27:58.041Z,99342.31
2019-05-19T06:30:27.204Z,99347.25
2019-05-19T06:32:56.931Z,99347.25
2019-05-19T06:35:25.588Z,99343.66
2019-05-19T06:37:54.250Z,99347.44
2019-05-19T06:40:22.956Z,99350.34
2019-05-19T06:42:51.593Z,99343.07
2019-05-19T06:45:20.266Z,99341.91
2019-05-19T06:47:54.813Z,99341.91
2019-05-19T06:50:27.073Z,99341.89
2019-05-19T06:53:12.920Z,99330.66
2019-05-19T06:55:30.863Z,99343.16
2019-05-19T06:58:00.537Z,99341.12
2019-05-19T07:00:30.709Z,99348.27
2019-05-19T07:02:59.648Z,99344.45
2019-05-19T07:05:30.091Z,99352.65
2019-05-19T07:08:01.964Z,99351.81
2019-05-19T07:10:32.991Z,99353.84
2019-05-19T07:13:06.714Z,99350.75
2019-05-19T07:15:36.751Z,99346.42
2019-05-19T07:18:11.408Z,99346.97
2019-05-19T07:20:40.027Z,99345.11
2019-05-19T07:23:08.657Z,99343.45
2019-05-19T07:25:37.281Z,99346.21
2019-05-19T07:28:05.974Z,99343.52
2019-05-19T07:30:34.673Z,99339.72
2019-05-19T07:33:03.342Z,99341.42
2019-05-19T07:35:31.970Z,99330.44
2019-05-19T07:38:00.700Z,99330.00
2019-05-19T07:40:29.391Z,99330.00
2019-05-19T07:42:58.038Z,99335.83
2019-05-19T07:45:26.807Z,99335.83
2019-05-19T07:47:55.416Z,99332.36
2019-05-19T07:50:24.049Z,99332.36
2019-05-19T07:52:52.706Z,99330.84
2019-05-19T07:55:21.303Z,99341.66
2019-05-19T07:57:49.983Z,99341.66
2019-05-19T08:00:18.672Z,99331.47
2019-05-19T08:02:47.356Z,99338.80
2019-05-19T08:05:16.030Z,99333.14
2019-05-19T08:07:44.721Z,99330.45
2019-05-19T08:10:13.603Z,99333.99
2019-05-19T08:12:42.232Z,99333.99
2019-05-19T08:15:11.030Z,99333.70
2019-05-19T08:17:39.905Z,99330.48
2019-05-19T08:20:09.112Z,99321.56
2019-05-19T08:22:37.727Z,99330.44
2019-05-19T08:25:07.270Z,99329.12
2019-05-19T08:27:35.925Z,99329.12
2019-05-19T08:30:04.950Z,99326.16
2019-05-19T08:32:33.573Z,99337.28
2019-05-19T08:35:04.328Z,99332.61
2019-05-19T08:37:32.687Z,99332.61
2019-05-19T08:40:02.146Z,99330.63
2019-05-19T08:42:32.940Z,99330.63
2019-05-19T08:45:02.134Z,99330.55
2019-05-19T08:47:30.799Z,99329.13
2019-05-19T08:49:59.412Z,99329.13
2019-05-19T08:52:28.037Z,99326.23
2019-05-19T08:54:56.639Z,99326.23
2019-05-19T08:57:25.349Z,99324.00
2019-05-19T08:59:53.972Z,99313.45
2019-05-19T09:02:42.379Z,99315.52
2019-05-19T09:05:11.042Z,99315.52
2019-05-19T09:07:39.689Z,99302.41
2019-05-19T09:10:08.759Z,99289.08
2019-05-19T09:12:37.798Z,99289.08
2019-05-19T09:15:06.669Z,99300.80
2019-05-19T09:17:35.315Z,99302.77
2019-05-19T09:20:04.421Z,99290.48
2019-05-19T09:22:33.111Z,99290.48
2019-05-19T09:25:02.022Z,99296.83
2019-05-19T09:27:30.950Z,99295.30
2019-05-19T09:29:59.580Z,99269.81
2019-05-19T09:32:28.204Z,99269.81
2019-05-19T09:34:56.824Z,99290.87
2019-05-19T09:37:25.541Z,99283.41
2019-05-19T09:39:54.166Z,99284.82
2019-05-19T09:42:22.846Z,99283.66
2019-05-19T09:44:51.523Z,99283.55
2019-05-19T09:47:20.454Z,99269.69
2019-05-19T09:49:49.055Z,99269.69
2019-05-19T09:52:17.777Z,99275.54
2019-05-19T09:54:46.467Z,99272.00
2019-05-19T09:57:15.080Z,99272.00
2019-05-19T09:59:43.709Z,99274.35
2019-05-19T10:02:12.532Z,99272.94
2019-05-19T10:04:41.182Z,99270.48
2019-05-19T10:07:10.126Z,99263.95
2019-05-19T10:09:54.669Z,99263.00
2019-05-19T10:12:23.277Z,99261.06
2019-05-19T10:14:51.906Z,99255.95
2019-05-19T10:17:20.661Z,99252.67
2019-05-19T10:19:49.283Z,99249.48
2019-05-19T10:22:17.901Z,99256.42
2019-05-19T10:25:04.228Z,99254.97
2019-05-19T10:27:16.897Z,99256.98
2019-05-19T10:29:45.724Z,99251.16
2019-05-19T10:32:14.532Z,99248.25
2019-05-19T10:34:43.284Z,99254.29
2019-05-19T10:37:11.884Z,99251.30
2019-05-19T10:39:40.655Z,99250.18
2019-05-19T10:42:09.330Z,99250.03
2019-05-19T10:44:38.083Z,99253.95
2019-05-19T10:48:20.337Z,99249.19
2019-05-19T10:50:48.933Z,99250.85
2019-05-19T10:53:17.609Z,99246.11
2019-05-19T10:55:46.346Z,99246.42
2019-05-19T10:58:14.970Z,99244.83
2019-05-19T11:00:43.577Z,99241.21
2019-05-19T11:03:12.169Z,99237.75
2019-05-19T11:05:40.878Z,99234.08
2019-05-19T11:08:09.459Z,99240.39
2019-05-19T11:10:38.095Z,99231.18
2019-05-19T11:13:06.680Z,99225.98
2019-05-19T11:15:35.386Z,99225.30
2019-05-19T11:18:06.495Z,99223.00
2019-05-19T11:20:34.512Z,99222.93
2019-05-19T11:23:03.123Z,99214.52
2019-05-19T11:25:34.363Z,99217.99
2019-05-19T11:28:02.212Z,99215.27
2019-05-19T11:30:30.891Z,99212.52
2019-05-19T11:32:59.492Z,99207.75
2019-05-19T11:35:28.322Z,99218.43
2019-05-19T11:37:57.076Z,99209.25
2019-05-19T11:40:25.680Z,99206.56
2019-05-19T11:42:54.345Z,99202.92
2019-05-19T11:45:23.053Z,99205.14
2019-05-19T11:47:51.689Z,99201.16
2019-05-19T11:50:20.318Z,99206.47
2019-05-19T11:52:48.976Z,99199.23
2019-05-19T11:55:17.695Z,99199.86
2019-05-19T11:57:46.285Z,99205.05
2019-05-19T12:00:15.470Z,99203.45
2019-05-19T12:02:44.205Z,99198.02
2019-05-19T12:05:13.573Z,99199.52
2019-05-19T12:07:42.391Z,99202.24
2019-05-19T12:10:11.127Z,99198.08
2019-05-19T12:12:39.787Z,99198.93
2019-05-19T12:15:09.278Z,99199.38
2019-05-19T12:17:37.897Z,99196.15
2019-05-19T12:20:06.890Z,99198.27
2019-05-19T12:22:35.487Z,99198.25
2019-05-19T12:25:04.290Z,99193.72
2019-05-19T12:27:32.920Z,99189.18
2019-05-19T12:33:51.100Z,99186.28
2019-05-19T12:36:10.199Z,99182.91
2019-05-19T12:38:38.831Z,99181.48
2019-05-19T12:41:07.531Z,99184.28
2019-05-19T12:43:36.134Z,99176.23
2019-05-19T12:46:13.587Z,99174.17
2019-05-19T12:48:35.117Z,99175.73
2019-05-19T12:51:03.788Z,99175.66
2019-05-19T12:53:32.489Z,99171.00
2019-05-19T12:56:01.465Z,99169.81
2019-05-19T12:58:30.074Z,99168.11
2019-05-19T13:00:58.807Z,99169.24
2019-05-19T13:03:27.515Z,99162.69
2019-05-19T13:05:56.345Z,99167.60
2019-05-19T13:08:25.001Z,99159.62
2019-05-19T13:10:53.809Z,99152.38
2019-05-19T13:13:22.464Z,99161.56
2019-05-19T13:15:51.230Z,99159.38
2019-05-19T13:18:19.825Z,99161.37
2019-05-19T13:20:48.613Z,99161.92
2019-05-19T13:23:17.281Z,99166.50
2019-05-19T13:25:46.302Z,99165.63
2019-05-19T13:28:14.925Z,99166.90
2019-05-19T13:30:43.832Z,99166.55
2019-05-19T13:33:12.763Z,99163.74
2019-05-19T13:35:41.502Z,99153.78
2019-05-19T13:38:10.317Z,99149.61
2019-05-19T13:40:40.013Z,99148.72
2019-05-19T13:43:09.537Z,99144.94
2019-05-19T13:45:47.654Z,99137.45
2019-05-19T13:48:17.954Z,99136.57
2019-05-19T13:50:49.637Z,99141.91
2019-05-19T13:53:25.700Z,99138.13
2019-05-19T13:57:11.074Z,99130.73
2019-05-19T14:14:41.200Z,99126.70
2019-05-19T14:17:44.829Z,99120.77
2019-05-19T14:20:53.870Z,99119.40
2019-05-19T14:27:30.548Z,99109.81
2019-05-19T14:30:03.452Z,99115.22
2019-05-19T14:33:01.012Z,99112.70
2019-05-19T14:39:54.145Z,99101.52
2019-05-19T14:42:57.948Z,99100.55
2019-05-19T14:45:33.997Z,99105.09
2019-05-19T14:48:13.174Z,99098.11
2019-05-19T14:50:54.471Z,99099.47
2019-05-19T14:56:58.791Z,99096.50
2019-05-19T14:59:27.412Z,99098.59
2019-05-19T15:01:56.302Z,99091.58
2019-05-19T15:04:25.399Z,99088.72
2019-05-19T15:06:54.091Z,99087.45
2019-05-19T15:09:22.832Z,99079.81
2019-05-19T15:11:52.717Z,99068.25
2019-05-19T15:14:21.366Z,99070.85
2019-05-19T15:16:51.064Z,99078.84
2019-05-19T15:19:19.714Z,99071.25
2019-05-19T15:21:48.372Z,99064.48
2019-05-19T15:24:16.792Z,99065.11
2019-05-19T15:26:45.409Z,99069.59
2019-05-19T15:29:14.033Z,99067.94
2019-05-19T15:31:42.691Z,99066.16
2019-05-19T15:34:11.330Z,99069.38
2019-05-19T15:36:40.263Z,99069.66
2019-05-19T15:39:08.916Z,99058.81
2019-05-19T15:41:37.550Z,99060.06
2019-05-19T15:44:06.684Z,99059.45
2019-05-19T15:46:35.378Z,99061.91
2019-05-19T15:49:04.058Z,99069.52
2019-05-19T15:51:37.415Z,99067.11
2019-05-19T15:54:03.144Z,99086.44
2019-05-19T15:56:32.060Z,99079.22
2019-05-19T15:59:00.757Z,99087.09
2019-05-19T16:01:30.656Z,99095.00
2019-05-19T16:04:07.307Z,99097.28
2019-05-19T16:06:39.048Z,99105.73
2019-05-19T16:09:07.932Z,99117.05
2019-05-19T16:12:02.399Z,99124.70
2019-05-19T16:14:32.526Z,99133.72
2019-05-19T16:17:01.184Z,99131.35
2019-05-19T16:19:29.870Z,99128.83
2019-05-19T16:21:58.520Z,99136.56
2019-05-19T16:24:27.168Z,99141.81
2019-05-19T16:26:55.771Z,99143.09
2019-05-19T16:29:24.393Z,99152.97
2019-05-19T16:31:53.014Z,99158.12
2019-05-19T16:34:21.623Z,99161.98
2019-05-19T16:36:50.311Z,99168.22
2019-05-19T16:39:18.951Z,99166.48
2019-05-19T16:41:47.629Z,99161.41
2019-05-19T16:44:16.239Z,99165.47
2019-05-19T16:46:44.834Z,99161.66
2019-05-19T16:49:13.474Z,99161.55
2019-05-19T16:51:42.163Z,99167.25
2019-05-19T16:54:16.591Z,99162.73
2019-05-19T16:56:57.623Z,99165.30
2019-05-19T17:12:28.604Z,99177.03
2019-05-19T17:15:00.503Z,99175.48
2019-05-19T17:17:40.935Z,99161.69
2019-05-19T17:20:14.767Z,99168.44
2019-05-19T17:22:45.158Z,99168.48
2019-05-19T17:25:21.082Z,99168.48
2019-05-19T17:27:53.106Z,99183.48
2019-05-19T17:30:22.478Z,99180.39
2019-05-19T17:33:01.061Z,99182.36
2019-05-19T17:35:34.642Z,99178.21
2019-05-19T17:38:13.148Z,99178.21
2019-05-19T17:40:43.610Z,99164.94
2019-05-19T17:43:13.628Z,99171.48
2019-05-19T17:45:55.113Z,99171.48
2019-05-19T17:48:26.900Z,99178.73
2019-05-19T17:51:18.691Z,99181.52
2019-05-19T17:53:48.024Z,99190.60
2019-05-19T17:56:22.786Z,99184.83
2019-05-19T17:58:55.651Z,99185.06
2019-05-19T18:01:33.516Z,99188.59
2019-05-19T18:04:03.465Z,99190.81
2019-05-19T18:06:34.511Z,99190.81
2019-05-19T18:09:06.959Z,99160.95
2019-05-19T18:11:40.250Z,99181.48
2019-05-19T18:14:12.241Z,99181.48
2019-05-19T18:16:45.831Z,99175.78
2019-05-19T18:19:33.956Z,99178.70
2019-05-19T18:22:32.748Z,99168.12
2019-05-19T18:25:10.795Z,99159.97
2019-05-19T18:28:14.140Z,99159.97
2019-05-19T18:30:58.765Z,99156.42
2019-05-19T18:34:03.714Z,99165.70
2019-05-19T18:36:37.553Z,99159.83
2019-05-19T18:39:12.358Z,99153.75
2019-05-19T18:42:08.533Z,99156.11
2019-05-19T18:44:42.473Z,99157.02
2019-05-19T18:47:18.861Z,99147.37
2019-05-19T18:49:59.810Z,99147.37
2019-05-19T18:52:34.337Z,99158.24
2019-05-19T18:55:17.264Z,99167.44
2019-05-19T18:57:53.563Z,99161.98
2019-05-19T19:00:51.230Z,99160.42
2019-05-19T19:03:41.578Z,99167.21
2019-05-19T19:06:28.546Z,99158.64
2019-05-19T19:09:53.145Z,99159.17
2019-05-19T19:12:35.342Z,99160.70
2019-05-19T19:15:09.057Z,99164.88
2019-05-19T19:17:46.091Z,99164.88
2019-05-19T19:20:22.205Z,99165.22
2019-05-19T19:23:15.252Z,99166.48
2019-05-19T19:25:50.889Z,99166.48
2019-05-19T19:28:51.509Z,99166.23
2019-05-19T19:31:27.651Z,99181.64
2019-05-19T19:34:05.055Z,99174.62
2019-05-19T19:37:26.617Z,99178.96
2019-05-19T19:40:00.347Z,99194.08
2019-05-19T19:43:10.185Z,99194.08
2019-05-19T19:46:09.469Z,99197.78
2019-05-19T19:48:52.539Z,99194.98
2019-05-19T19:51:22.012Z,99194.98
2019-05-19T19:56:53.235Z,99204.20
2019-05-19T19:59:31.924Z,99204.20
2019-05-19T20:02:29.945Z,99207.40
2019-05-19T20:05:32.143Z,99209.34
2019-05-19T20:08:05.685Z,99206.36
2019-05-19T20:10:55.500Z,99213.36
2019-05-19T20:13:32.931Z,99221.98
2019-05-19T20:16:08.135Z,99213.05
2019-05-19T20:18:44.967Z,99217.41
2019-05-19T20:21:37.583Z,99206.38
2019-05-19T20:24:12.221Z,99206.38
2019-05-19T20:30:35.221Z,99219.53
2019-05-19T20:36:19.629Z,99216.67
2019-05-19T20:39:00.990Z,99220.42
2019-05-19T20:45:21.418Z,99216.49
2019-05-19T20:47:53.468Z,99215.10
2019-05-19T20:50:39.785Z,99213.22
2019-05-19T20:53:10.577Z,99217.92
2019-05-19T20:55:53.538Z,99225.27
2019-05-19T20:58:31.123Z,99224.13
2019-05-19T21:01:27.300Z,99242.34
2019-05-19T21:04:04.796Z,99242.34
2019-05-19T21:06:36.377Z,99252.78
2019-05-19T21:09:35.227Z,99252.78
2019-05-19T21:20:12.401Z,99244.19
2019-05-19T21:22:55.886Z,99258.95
2019-05-19T21:25:46.307Z,99261.59
2019-05-19T21:28:21.210Z,99261.59
2019-05-19T21:31:27.624Z,99255.70
2019-05-19T21:34:28.880Z,99256.81
2019-05-19T21:37:29.076Z,99255.95
2019-05-19T21:40:15.803Z,99251.16
2019-05-19T21:42:48.369Z,99255.17
2019-05-19T21:45:25.471Z,99248.92
2019-05-19T21:48:08.793Z,99257.54
2019-05-19T21:50:46.429Z,99257.18
2019-05-19T21:53:30.694Z,99253.06
2019-05-19T21:56:10.190Z,99251.08
2019-05-19T21:58:53.503Z,99252.23
2019-05-19T22:01:30.324Z,99256.71
2019-05-19T22:03:59.859Z,99255.92
2019-05-19T22:06:40.660Z,99245.38
2019-05-19T22:09:16.594Z,99249.46
2019-05-19T22:11:50.416Z,99250.66
2019-05-19T22:14:23.478Z,99247.48
2019-05-19T22:16:53.497Z,99248.83
2019-05-19T22:19:28.756Z,99250.47
2019-05-19T22:22:05.021Z,99245.96
2019-05-19T22:24:37.744Z,99245.17
2019-05-19T22:27:11.998Z,99244.48
2019-05-19T22:29:44.658Z,99243.95
2019-05-19T22:32:26.478Z,99246.98
2019-05-19T22:35:15.261Z,99245.08
2019-05-19T22:40:49.432Z,99246.00
2019-05-19T22:43:51.238Z,99246.38
2019-05-19T22:46:41.482Z,99249.05
2019-05-19T22:49:34.877Z,99238.31
2019-05-19T22:52:33.435Z,99240.69
2019-05-19T22:58:37.808Z,99239.77
2019-05-19T23:01:06.534Z,99235.98
2019-05-19T23:03:35.123Z,99230.77
2019-05-19T23:06:04.024Z,99236.66
2019-05-19T23:08:32.651Z,99231.19
2019-05-19T23:11:01.114Z,99233.71
2019-05-19T23:13:29.753Z,99232.69
2019-05-19T23:15:58.390Z,99232.37
2019-05-19T23:18:27.001Z,99232.37
2019-05-19T23:20:55.709Z,99232.73
2019-05-19T23:23:24.340Z,99234.59
2019-05-19T23:25:53.021Z,99230.20
2019-05-19T23:28:21.631Z,99231.84
2019-05-19T23:30:50.234Z,99229.47
2019-05-19T23:33:20.206Z,99230.55
2019-05-19T23:35:48.906Z,99225.33
2019-05-19T23:38:17.631Z,99229.43
2019-05-19T23:40:46.257Z,99221.41
2019-05-19T23:43:14.883Z,99230.98
2019-05-19T23:52:52.168Z,99249.02
2019-05-19T23:55:20.868Z,99245.08
2019-05-19T23:57:49.488Z,99244.21
